sensor_id;sensor_type;location;lat;lon;timestamp;pressure;altitude;pressure_sealevel;temperature
69552;BMP280;63774;45.292;11.784;2023-05-29T00:01:46;101707.27;;;23.85
69552;BMP280;63774;45.292;11.784;2023-05-29T00:04:12;101708.08;;;23.85
69552;BMP280;63774;45.292;11.784;2023-05-29T00:06:38;101703.80;;;23.84
69552;BMP280;63774;45.292;11.784;2023-05-29T00:09:03;101701.92;;;23.84
69552;BMP280;63774;45.292;11.784;2023-05-29T00:11:30;101705.05;;;23.84
69552;BMP280;63774;45.292;11.784;2023-05-29T00:13:56;101703.42;;;23.84
69552;BMP280;63774;45.292;11.784;2023-05-29T00:16:23;101701.86;;;23.83
69552;BMP280;63774;45.292;11.784;2023-05-29T00:18:50;101700.52;;;23.82
69552;BMP280;63774;45.292;11.784;2023-05-29T00:21:18;101701.73;;;23.83
69552;BMP280;63774;45.292;11.784;2023-05-29T00:23:44;101706.71;;;23.82
69552;BMP280;63774;45.292;11.784;2023-05-29T00:26:09;101710.86;;;23.82
69552;BMP280;63774;45.292;11.784;2023-05-29T00:28:35;101710.45;;;23.81
69552;BMP280;63774;45.292;11.784;2023-05-29T00:31:01;101707.75;;;23.80
69552;BMP280;63774;45.292;11.784;2023-05-29T00:33:28;101704.90;;;23.81
69552;BMP280;63774;45.292;11.784;2023-05-29T00:35:53;101702.20;;;23.80
69552;BMP280;63774;45.292;11.784;2023-05-29T00:38:19;101705.77;;;23.79
69552;BMP280;63774;45.292;11.784;2023-05-29T00:40:46;101705.91;;;23.79
69552;BMP280;63774;45.292;11.784;2023-05-29T00:43:13;101707.64;;;23.78
69552;BMP280;63774;45.292;11.784;2023-05-29T00:45:38;101709.71;;;23.77
69552;BMP280;63774;45.292;11.784;2023-05-29T00:48:05;101708.81;;;23.77
69552;BMP280;63774;45.292;11.784;2023-05-29T00:50:32;101710.21;;;23.76
69552;BMP280;63774;45.292;11.784;2023-05-29T00:52:59;101713.39;;;23.77
69552;BMP280;63774;45.292;11.784;2023-05-29T00:55:35;101714.77;;;23.76
69552;BMP280;63774;45.292;11.784;2023-05-29T00:58:02;101717.78;;;23.75
69552;BMP280;63774;45.292;11.784;2023-05-29T01:00:28;101716.07;;;23.75
69552;BMP280;63774;45.292;11.784;2023-05-29T01:02:56;101719.41;;;23.75
69552;BMP280;63774;45.292;11.784;2023-05-29T01:05:23;101719.80;;;23.74
69552;BMP280;63774;45.292;11.784;2023-05-29T01:07:50;101719.67;;;23.74
69552;BMP280;63774;45.292;11.784;2023-05-29T01:10:16;101725.81;;;23.73
69552;BMP280;63774;45.292;11.784;2023-05-29T01:12:57;101723.98;;;23.73
69552;BMP280;63774;45.292;11.784;2023-05-29T01:24:13;101726.46;;;23.71
69552;BMP280;63774;45.292;11.784;2023-05-29T01:26:50;101727.66;;;23.72
69552;BMP280;63774;45.292;11.784;2023-05-29T01:29:26;101723.92;;;23.70
69552;BMP280;63774;45.292;11.784;2023-05-29T01:31:52;101724.58;;;23.69
69552;BMP280;63774;45.292;11.784;2023-05-29T01:34:20;101723.35;;;23.69
69552;BMP280;63774;45.292;11.784;2023-05-29T01:36:46;101721.41;;;23.68
69552;BMP280;63774;45.292;11.784;2023-05-29T01:39:13;101723.63;;;23.68
69552;BMP280;63774;45.292;11.784;2023-05-29T01:41:40;101722.12;;;23.68
69552;BMP280;63774;45.292;11.784;2023-05-29T01:44:08;101719.36;;;23.68
69552;BMP280;63774;45.292;11.784;2023-05-29T01:46:35;101717.11;;;23.68
69552;BMP280;63774;45.292;11.784;2023-05-29T01:49:01;101710.48;;;23.66
69552;BMP280;63774;45.292;11.784;2023-05-29T01:51:29;101712.96;;;23.66
69552;BMP280;63774;45.292;11.784;2023-05-29T01:54:00;101713.98;;;23.66
69552;BMP280;63774;45.292;11.784;2023-05-29T01:56:26;101713.36;;;23.67
69552;BMP280;63774;45.292;11.784;2023-05-29T01:58:54;101712.77;;;23.65
69552;BMP280;63774;45.292;11.784;2023-05-29T02:01:21;101708.79;;;23.65
69552;BMP280;63774;45.292;11.784;2023-05-29T02:03:47;101707.33;;;23.65
69552;BMP280;63774;45.292;11.784;2023-05-29T02:06:17;101706.36;;;23.64
69552;BMP280;63774;45.292;11.784;2023-05-29T02:08:43;101703.58;;;23.64
69552;BMP280;63774;45.292;11.784;2023-05-29T02:11:12;101702.50;;;23.64
69552;BMP280;63774;45.292;11.784;2023-05-29T02:13:38;101703.99;;;23.63
69552;BMP280;63774;45.292;11.784;2023-05-29T02:16:04;101703.27;;;23.63
69552;BMP280;63774;45.292;11.784;2023-05-29T02:18:30;101703.39;;;23.62
69552;BMP280;63774;45.292;11.784;2023-05-29T02:20:56;101702.86;;;23.61
69552;BMP280;63774;45.292;11.784;2023-05-29T02:23:22;101702.22;;;23.61
69552;BMP280;63774;45.292;11.784;2023-05-29T02:25:50;101704.60;;;23.61
69552;BMP280;63774;45.292;11.784;2023-05-29T02:28:16;101703.63;;;23.60
69552;BMP280;63774;45.292;11.784;2023-05-29T02:30:42;101702.85;;;23.60
69552;BMP280;63774;45.292;11.784;2023-05-29T02:33:09;101698.53;;;23.59
69552;BMP280;63774;45.292;11.784;2023-05-29T02:35:34;101700.25;;;23.59
69552;BMP280;63774;45.292;11.784;2023-05-29T02:38:00;101699.55;;;23.59
69552;BMP280;63774;45.292;11.784;2023-05-29T02:40:25;101697.10;;;23.57
69552;BMP280;63774;45.292;11.784;2023-05-29T02:42:51;101694.16;;;23.57
69552;BMP280;63774;45.292;11.784;2023-05-29T02:45:17;101693.16;;;23.57
69552;BMP280;63774;45.292;11.784;2023-05-29T02:47:42;101694.04;;;23.56
69552;BMP280;63774;45.292;11.784;2023-05-29T02:50:08;101694.32;;;23.56
69552;BMP280;63774;45.292;11.784;2023-05-29T02:52:35;101696.84;;;23.56
69552;BMP280;63774;45.292;11.784;2023-05-29T02:55:02;101696.96;;;23.56
69552;BMP280;63774;45.292;11.784;2023-05-29T02:57:29;101698.13;;;23.55
69552;BMP280;63774;45.292;11.784;2023-05-29T02:59:54;101696.54;;;23.54
69552;BMP280;63774;45.292;11.784;2023-05-29T03:02:20;101697.35;;;23.54
69552;BMP280;63774;45.292;11.784;2023-05-29T03:04:47;101697.33;;;23.56
69552;BMP280;63774;45.292;11.784;2023-05-29T03:07:16;101700.91;;;23.55
69552;BMP280;63774;45.292;11.784;2023-05-29T03:09:41;101698.48;;;23.53
69552;BMP280;63774;45.292;11.784;2023-05-29T03:12:08;101700.10;;;23.54
69552;BMP280;63774;45.292;11.784;2023-05-29T03:14:34;101704.71;;;23.53
69552;BMP280;63774;45.292;11.784;2023-05-29T03:17:05;101700.17;;;23.52
69552;BMP280;63774;45.292;11.784;2023-05-29T03:19:31;101702.84;;;23.53
69552;BMP280;63774;45.292;11.784;2023-05-29T03:21:57;101701.74;;;23.52
69552;BMP280;63774;45.292;11.784;2023-05-29T03:24:22;101702.83;;;23.52
69552;BMP280;63774;45.292;11.784;2023-05-29T03:26:50;101704.40;;;23.52
69552;BMP280;63774;45.292;11.784;2023-05-29T03:29:16;101703.08;;;23.51
69552;BMP280;63774;45.292;11.784;2023-05-29T03:31:42;101701.27;;;23.51
69552;BMP280;63774;45.292;11.784;2023-05-29T03:34:07;101700.50;;;23.51
69552;BMP280;63774;45.292;11.784;2023-05-29T03:36:33;101698.19;;;23.50
69552;BMP280;63774;45.292;11.784;2023-05-29T03:39:03;101698.76;;;23.51
69552;BMP280;63774;45.292;11.784;2023-05-29T03:41:29;101696.77;;;23.49
69552;BMP280;63774;45.292;11.784;2023-05-29T03:43:57;101697.55;;;23.49
69552;BMP280;63774;45.292;11.784;2023-05-29T03:46:24;101697.48;;;23.49
69552;BMP280;63774;45.292;11.784;2023-05-29T03:48:50;101699.69;;;23.49
69552;BMP280;63774;45.292;11.784;2023-05-29T03:51:16;101702.27;;;23.48
69552;BMP280;63774;45.292;11.784;2023-05-29T03:53:45;101700.61;;;23.47
69552;BMP280;63774;45.292;11.784;2023-05-29T03:56:11;101700.77;;;23.48
69552;BMP280;63774;45.292;11.784;2023-05-29T03:58:37;101701.63;;;23.47
69552;BMP280;63774;45.292;11.784;2023-05-29T04:01:02;101700.17;;;23.45
69552;BMP280;63774;45.292;11.784;2023-05-29T04:03:31;101700.66;;;23.45
69552;BMP280;63774;45.292;11.784;2023-05-29T04:05:57;101700.55;;;23.44
69552;BMP280;63774;45.292;11.784;2023-05-29T04:08:24;101705.75;;;23.44
69552;BMP280;63774;45.292;11.784;2023-05-29T04:10:54;101709.73;;;23.44
69552;BMP280;63774;45.292;11.784;2023-05-29T04:13:20;101711.05;;;23.44
69552;BMP280;63774;45.292;11.784;2023-05-29T04:15:46;101713.94;;;23.44
69552;BMP280;63774;45.292;11.784;2023-05-29T04:18:11;101715.76;;;23.43
69552;BMP280;63774;45.292;11.784;2023-05-29T04:20:41;101718.84;;;23.43
69552;BMP280;63774;45.292;11.784;2023-05-29T04:23:13;101721.23;;;23.42
69552;BMP280;63774;45.292;11.784;2023-05-29T04:25:39;101724.64;;;23.43
69552;BMP280;63774;45.292;11.784;2023-05-29T04:28:06;101726.80;;;23.43
69552;BMP280;63774;45.292;11.784;2023-05-29T04:30:31;101726.54;;;23.43
69552;BMP280;63774;45.292;11.784;2023-05-29T04:32:59;101733.38;;;23.44
69552;BMP280;63774;45.292;11.784;2023-05-29T04:35:25;101733.75;;;23.45
69552;BMP280;63774;45.292;11.784;2023-05-29T04:37:53;101734.17;;;23.45
69552;BMP280;63774;45.292;11.784;2023-05-29T04:40:19;101738.14;;;23.44
69552;BMP280;63774;45.292;11.784;2023-05-29T04:42:45;101742.88;;;23.44
69552;BMP280;63774;45.292;11.784;2023-05-29T04:45:11;101740.45;;;23.46
69552;BMP280;63774;45.292;11.784;2023-05-29T04:47:37;101741.90;;;23.46
69552;BMP280;63774;45.292;11.784;2023-05-29T04:50:10;101742.67;;;23.46
69552;BMP280;63774;45.292;11.784;2023-05-29T04:52:37;101744.32;;;23.47
69552;BMP280;63774;45.292;11.784;2023-05-29T04:55:06;101743.87;;;23.46
69552;BMP280;63774;45.292;11.784;2023-05-29T04:57:32;101742.23;;;23.46
69552;BMP280;63774;45.292;11.784;2023-05-29T04:59:57;101747.70;;;23.47
69552;BMP280;63774;45.292;11.784;2023-05-29T05:02:26;101748.02;;;23.49
69552;BMP280;63774;45.292;11.784;2023-05-29T05:04:51;101744.19;;;23.48
69552;BMP280;63774;45.292;11.784;2023-05-29T05:07:17;101743.75;;;23.50
69552;BMP280;63774;45.292;11.784;2023-05-29T05:09:42;101742.48;;;23.50
69552;BMP280;63774;45.292;11.784;2023-05-29T05:12:08;101744.02;;;23.52
69552;BMP280;63774;45.292;11.784;2023-05-29T05:14:34;101744.70;;;23.52
69552;BMP280;63774;45.292;11.784;2023-05-29T05:17:00;101746.40;;;23.53
69552;BMP280;63774;45.292;11.784;2023-05-29T05:19:25;101744.54;;;23.53
69552;BMP280;63774;45.292;11.784;2023-05-29T05:21:51;101744.86;;;23.54
69552;BMP280;63774;45.292;11.784;2023-05-29T05:24:16;101743.77;;;23.54
69552;BMP280;63774;45.292;11.784;2023-05-29T05:26:42;101743.23;;;23.55
69552;BMP280;63774;45.292;11.784;2023-05-29T05:29:07;101743.87;;;23.56
69552;BMP280;63774;45.292;11.784;2023-05-29T05:31:32;101742.69;;;23.56
69552;BMP280;63774;45.292;11.784;2023-05-29T05:33:58;101739.89;;;23.56
69552;BMP280;63774;45.292;11.784;2023-05-29T05:36:24;101741.81;;;23.57
69552;BMP280;63774;45.292;11.784;2023-05-29T05:38:49;101741.30;;;23.58
69552;BMP280;63774;45.292;11.784;2023-05-29T05:41:15;101740.36;;;23.58
69552;BMP280;63774;45.292;11.784;2023-05-29T05:43:40;101738.48;;;23.58
69552;BMP280;63774;45.292;11.784;2023-05-29T05:46:06;101740.78;;;23.59
69552;BMP280;63774;45.292;11.784;2023-05-29T05:48:31;101739.04;;;23.60
69552;BMP280;63774;45.292;11.784;2023-05-29T05:50:57;101739.92;;;23.60
69552;BMP280;63774;45.292;11.784;2023-05-29T05:53:22;101736.21;;;23.60
69552;BMP280;63774;45.292;11.784;2023-05-29T05:55:48;101738.16;;;23.61
69552;BMP280;63774;45.292;11.784;2023-05-29T05:58:14;101739.05;;;23.61
69552;BMP280;63774;45.292;11.784;2023-05-29T06:00:40;101738.34;;;23.62
69552;BMP280;63774;45.292;11.784;2023-05-29T06:03:07;101739.14;;;23.62
69552;BMP280;63774;45.292;11.784;2023-05-29T06:05:33;101738.27;;;23.63
69552;BMP280;63774;45.292;11.784;2023-05-29T06:08:03;101738.98;;;23.64
69552;BMP280;63774;45.292;11.784;2023-05-29T06:10:28;101735.83;;;23.64
69552;BMP280;63774;45.292;11.784;2023-05-29T06:12:54;101736.70;;;23.66
69552;BMP280;63774;45.292;11.784;2023-05-29T06:15:19;101738.50;;;23.65
69552;BMP280;63774;45.292;11.784;2023-05-29T06:17:45;101738.30;;;23.66
69552;BMP280;63774;45.292;11.784;2023-05-29T06:20:10;101737.73;;;23.67
69552;BMP280;63774;45.292;11.784;2023-05-29T06:22:37;101736.12;;;23.69
69552;BMP280;63774;45.292;11.784;2023-05-29T06:25:03;101735.73;;;23.70
69552;BMP280;63774;45.292;11.784;2023-05-29T06:27:28;101739.09;;;23.71
69552;BMP280;63774;45.292;11.784;2023-05-29T06:29:54;101738.83;;;23.71
69552;BMP280;63774;45.292;11.784;2023-05-29T06:32:19;101740.33;;;23.72
69552;BMP280;63774;45.292;11.784;2023-05-29T06:34:45;101739.40;;;23.73
69552;BMP280;63774;45.292;11.784;2023-05-29T06:37:11;101740.52;;;23.76
69552;BMP280;63774;45.292;11.784;2023-05-29T06:39:37;101739.32;;;23.76
69552;BMP280;63774;45.292;11.784;2023-05-29T06:42:05;101738.09;;;23.78
69552;BMP280;63774;45.292;11.784;2023-05-29T06:44:30;101740.45;;;23.80
69552;BMP280;63774;45.292;11.784;2023-05-29T06:46:56;101740.03;;;23.81
69552;BMP280;63774;45.292;11.784;2023-05-29T06:49:22;101738.77;;;23.81
69552;BMP280;63774;45.292;11.784;2023-05-29T06:51:47;101740.50;;;23.84
69552;BMP280;63774;45.292;11.784;2023-05-29T06:54:13;101738.66;;;23.85
69552;BMP280;63774;45.292;11.784;2023-05-29T06:56:39;101739.05;;;23.85
69552;BMP280;63774;45.292;11.784;2023-05-29T06:59:04;101739.20;;;23.87
69552;BMP280;63774;45.292;11.784;2023-05-29T07:01:30;101738.52;;;23.88
69552;BMP280;63774;45.292;11.784;2023-05-29T07:03:56;101737.12;;;23.87
69552;BMP280;63774;45.292;11.784;2023-05-29T07:06:21;101737.77;;;23.88
69552;BMP280;63774;45.292;11.784;2023-05-29T07:08:47;101737.41;;;23.88
69552;BMP280;63774;45.292;11.784;2023-05-29T07:11:12;101734.29;;;23.89
69552;BMP280;63774;45.292;11.784;2023-05-29T07:13:38;101737.42;;;23.90
69552;BMP280;63774;45.292;11.784;2023-05-29T07:16:04;101743.40;;;23.92
69552;BMP280;63774;45.292;11.784;2023-05-29T07:18:30;101743.95;;;23.91
69552;BMP280;63774;45.292;11.784;2023-05-29T07:20:56;101747.02;;;23.91
69552;BMP280;63774;45.292;11.784;2023-05-29T07:23:24;101745.19;;;23.91
69552;BMP280;63774;45.292;11.784;2023-05-29T07:25:51;101748.73;;;23.92
69552;BMP280;63774;45.292;11.784;2023-05-29T07:28:18;101755.21;;;23.92
69552;BMP280;63774;45.292;11.784;2023-05-29T07:30:44;101758.20;;;23.93
69552;BMP280;63774;45.292;11.784;2023-05-29T07:33:09;101758.91;;;23.93
69552;BMP280;63774;45.292;11.784;2023-05-29T07:35:36;101761.82;;;23.93
69552;BMP280;63774;45.292;11.784;2023-05-29T07:38:04;101764.71;;;23.94
69552;BMP280;63774;45.292;11.784;2023-05-29T07:40:30;101764.09;;;23.93
69552;BMP280;63774;45.292;11.784;2023-05-29T07:42:55;101761.98;;;23.94
69552;BMP280;63774;45.292;11.784;2023-05-29T07:45:22;101763.02;;;23.94
69552;BMP280;63774;45.292;11.784;2023-05-29T07:47:47;101763.08;;;23.95
69552;BMP280;63774;45.292;11.784;2023-05-29T07:50:14;101759.50;;;23.97
69552;BMP280;63774;45.292;11.784;2023-05-29T07:52:42;101758.15;;;23.97
69552;BMP280;63774;45.292;11.784;2023-05-29T07:55:13;101759.92;;;23.99
69552;BMP280;63774;45.292;11.784;2023-05-29T07:57:39;101760.27;;;23.98
69552;BMP280;63774;45.292;11.784;2023-05-29T08:00:06;101760.54;;;23.98
69552;BMP280;63774;45.292;11.784;2023-05-29T08:02:35;101763.05;;;23.99
69552;BMP280;63774;45.292;11.784;2023-05-29T08:05:03;101763.75;;;23.98
69552;BMP280;63774;45.292;11.784;2023-05-29T08:07:29;101763.18;;;23.98
69552;BMP280;63774;45.292;11.784;2023-05-29T08:09:55;101761.45;;;23.99
69552;BMP280;63774;45.292;11.784;2023-05-29T08:12:20;101762.80;;;23.99
69552;BMP280;63774;45.292;11.784;2023-05-29T08:14:46;101761.46;;;24.00
69552;BMP280;63774;45.292;11.784;2023-05-29T08:17:11;101765.27;;;24.01
69552;BMP280;63774;45.292;11.784;2023-05-29T08:19:37;101762.27;;;24.02
69552;BMP280;63774;45.292;11.784;2023-05-29T08:22:03;101759.41;;;24.02
69552;BMP280;63774;45.292;11.784;2023-05-29T08:24:29;101757.02;;;24.02
69552;BMP280;63774;45.292;11.784;2023-05-29T08:26:56;101758.30;;;24.03
69552;BMP280;63774;45.292;11.784;2023-05-29T08:29:22;101761.05;;;24.04
69552;BMP280;63774;45.292;11.784;2023-05-29T08:31:48;101764.69;;;24.04
69552;BMP280;63774;45.292;11.784;2023-05-29T08:34:14;101764.13;;;24.05
69552;BMP280;63774;45.292;11.784;2023-05-29T08:36:39;101760.18;;;24.05
69552;BMP280;63774;45.292;11.784;2023-05-29T08:39:07;101762.05;;;24.05
69552;BMP280;63774;45.292;11.784;2023-05-29T08:41:59;101759.73;;;24.06
69552;BMP280;63774;45.292;11.784;2023-05-29T08:44:30;101763.91;;;24.07
69552;BMP280;63774;45.292;11.784;2023-05-29T08:47:02;101762.42;;;24.08
69552;BMP280;63774;45.292;11.784;2023-05-29T08:49:42;101761.45;;;24.08
69552;BMP280;63774;45.292;11.784;2023-05-29T08:52:15;101762.40;;;24.12
69552;BMP280;63774;45.292;11.784;2023-05-29T08:54:43;101759.07;;;24.13
69552;BMP280;63774;45.292;11.784;2023-05-29T08:57:11;101762.26;;;24.13
69552;BMP280;63774;45.292;11.784;2023-05-29T08:59:40;101756.27;;;24.14
69552;BMP280;63774;45.292;11.784;2023-05-29T09:02:09;101754.41;;;24.15
69552;BMP280;63774;45.292;11.784;2023-05-29T09:04:35;101754.02;;;24.17
69552;BMP280;63774;45.292;11.784;2023-05-29T09:07:01;101752.78;;;24.19
69552;BMP280;63774;45.292;11.784;2023-05-29T09:09:28;101755.33;;;24.19
69552;BMP280;63774;45.292;11.784;2023-05-29T09:11:53;101760.31;;;24.21
69552;BMP280;63774;45.292;11.784;2023-05-29T09:16:59;101761.20;;;24.23
69552;BMP280;63774;45.292;11.784;2023-05-29T09:19:25;101766.93;;;24.24
69552;BMP280;63774;45.292;11.784;2023-05-29T09:21:51;101768.09;;;24.25
69552;BMP280;63774;45.292;11.784;2023-05-29T09:24:16;101769.55;;;24.25
69552;BMP280;63774;45.292;11.784;2023-05-29T09:26:51;101773.08;;;24.25
69552;BMP280;63774;45.292;11.784;2023-05-29T09:29:16;101776.90;;;24.26
69552;BMP280;63774;45.292;11.784;2023-05-29T09:31:50;101776.80;;;24.26
69552;BMP280;63774;45.292;11.784;2023-05-29T09:34:16;101773.67;;;24.25
69552;BMP280;63774;45.292;11.784;2023-05-29T09:36:41;101778.05;;;24.24
69552;BMP280;63774;45.292;11.784;2023-05-29T09:39:07;101784.83;;;24.24
69552;BMP280;63774;45.292;11.784;2023-05-29T09:41:45;101788.40;;;24.24
69552;BMP280;63774;45.292;11.784;2023-05-29T09:44:14;101787.06;;;24.24
69552;BMP280;63774;45.292;11.784;2023-05-29T09:46:41;101786.67;;;24.23
69552;BMP280;63774;45.292;11.784;2023-05-29T09:49:14;101789.00;;;24.22
69552;BMP280;63774;45.292;11.784;2023-05-29T09:51:42;101790.55;;;24.22
69552;BMP280;63774;45.292;11.784;2023-05-29T09:54:16;101790.05;;;24.21
69552;BMP280;63774;45.292;11.784;2023-05-29T09:56:43;101791.67;;;24.21
69552;BMP280;63774;45.292;11.784;2023-05-29T09:59:14;101790.68;;;24.21
69552;BMP280;63774;45.292;11.784;2023-05-29T10:01:44;101788.65;;;24.22
69552;BMP280;63774;45.292;11.784;2023-05-29T10:04:10;101789.95;;;24.21
69552;BMP280;63774;45.292;11.784;2023-05-29T10:06:38;101789.15;;;24.21
69552;BMP280;63774;45.292;11.784;2023-05-29T10:09:09;101784.15;;;24.20
69552;BMP280;63774;45.292;11.784;2023-05-29T10:11:37;101783.89;;;24.21
69552;BMP280;63774;45.292;11.784;2023-05-29T10:14:07;101780.62;;;24.20
69552;BMP280;63774;45.292;11.784;2023-05-29T10:16:41;101781.66;;;24.21
69552;BMP280;63774;45.292;11.784;2023-05-29T10:19:12;101776.84;;;24.20
69552;BMP280;63774;45.292;11.784;2023-05-29T10:21:40;101778.36;;;24.21
69552;BMP280;63774;45.292;11.784;2023-05-29T10:24:07;101776.63;;;24.21
69552;BMP280;63774;45.292;11.784;2023-05-29T10:26:38;101778.42;;;24.21
69552;BMP280;63774;45.292;11.784;2023-05-29T10:32:11;101774.31;;;24.21
69552;BMP280;63774;45.292;11.784;2023-05-29T10:40:10;101772.30;;;24.26
69552;BMP280;63774;45.292;11.784;2023-05-29T10:42:46;101770.33;;;24.28
69552;BMP280;63774;45.292;11.784;2023-05-29T10:53:09;101768.59;;;24.29
69552;BMP280;63774;45.292;11.784;2023-05-29T10:55:38;101770.96;;;24.30
69552;BMP280;63774;45.292;11.784;2023-05-29T10:58:13;101765.41;;;24.31
69552;BMP280;63774;45.292;11.784;2023-05-29T11:00:41;101761.84;;;24.32
69552;BMP280;63774;45.292;11.784;2023-05-29T11:03:08;101762.85;;;24.34
69552;BMP280;63774;45.292;11.784;2023-05-29T11:05:34;101762.35;;;24.36
69552;BMP280;63774;45.292;11.784;2023-05-29T11:08:01;101762.42;;;24.35
69552;BMP280;63774;45.292;11.784;2023-05-29T11:13:06;101756.20;;;24.38
69552;BMP280;63774;45.292;11.784;2023-05-29T11:15:32;101755.92;;;24.38
69552;BMP280;63774;45.292;11.784;2023-05-29T11:18:06;101757.79;;;24.39
69552;BMP280;63774;45.292;11.784;2023-05-29T11:20:51;101750.92;;;24.38
69552;BMP280;63774;45.292;11.784;2023-05-29T11:23:18;101749.25;;;24.41
69552;BMP280;63774;45.292;11.784;2023-05-29T11:25:46;101749.44;;;24.42
69552;BMP280;63774;45.292;11.784;2023-05-29T11:28:13;101746.17;;;24.41
69552;BMP280;63774;45.292;11.784;2023-05-29T11:30:48;101746.18;;;24.43
69552;BMP280;63774;45.292;11.784;2023-05-29T11:33:25;101744.44;;;24.43
69552;BMP280;63774;45.292;11.784;2023-05-29T11:35:58;101744.89;;;24.44
69552;BMP280;63774;45.292;11.784;2023-05-29T11:38:25;101740.92;;;24.43
69552;BMP280;63774;45.292;11.784;2023-05-29T11:40:53;101741.39;;;24.46
69552;BMP280;63774;45.292;11.784;2023-05-29T11:43:20;101737.91;;;24.48
69552;BMP280;63774;45.292;11.784;2023-05-29T11:45:46;101736.48;;;24.48
69552;BMP280;63774;45.292;11.784;2023-05-29T11:48:12;101742.23;;;24.49
69552;BMP280;63774;45.292;11.784;2023-05-29T11:50:38;101734.19;;;24.47
69552;BMP280;63774;45.292;11.784;2023-05-29T11:53:06;101729.80;;;24.49
69552;BMP280;63774;45.292;11.784;2023-05-29T11:55:32;101726.48;;;24.49
69552;BMP280;63774;45.292;11.784;2023-05-29T11:58:03;101725.55;;;24.50
69552;BMP280;63774;45.292;11.784;2023-05-29T12:00:35;101731.60;;;24.50
69552;BMP280;63774;45.292;11.784;2023-05-29T12:03:02;101729.73;;;24.50
69552;BMP280;63774;45.292;11.784;2023-05-29T12:05:52;101723.34;;;24.51
69552;BMP280;63774;45.292;11.784;2023-05-29T12:08:24;101724.81;;;24.51
69552;BMP280;63774;45.292;11.784;2023-05-29T12:10:52;101725.73;;;24.52
69552;BMP280;63774;45.292;11.784;2023-05-29T12:13:21;101727.17;;;24.52
69552;BMP280;63774;45.292;11.784;2023-05-29T12:15:49;101726.20;;;24.53
69552;BMP280;63774;45.292;11.784;2023-05-29T12:18:17;101723.96;;;24.54
69552;BMP280;63774;45.292;11.784;2023-05-29T12:20:43;101724.33;;;24.55
69552;BMP280;63774;45.292;11.784;2023-05-29T12:23:08;101720.66;;;24.56
69552;BMP280;63774;45.292;11.784;2023-05-29T12:25:34;101722.52;;;24.56
69552;BMP280;63774;45.292;11.784;2023-05-29T12:28:04;101719.46;;;24.56
69552;BMP280;63774;45.292;11.784;2023-05-29T12:30:30;101715.19;;;24.55
69552;BMP280;63774;45.292;11.784;2023-05-29T12:32:57;101716.77;;;24.55
69552;BMP280;63774;45.292;11.784;2023-05-29T12:35:26;101717.32;;;24.57
69552;BMP280;63774;45.292;11.784;2023-05-29T12:37:56;101714.33;;;24.57
69552;BMP280;63774;45.292;11.784;2023-05-29T12:40:26;101713.56;;;24.58
69552;BMP280;63774;45.292;11.784;2023-05-29T12:43:06;101714.28;;;24.60
69552;BMP280;63774;45.292;11.784;2023-05-29T12:45:33;101710.34;;;24.61
69552;BMP280;63774;45.292;11.784;2023-05-29T12:48:03;101711.67;;;24.60
69552;BMP280;63774;45.292;11.784;2023-05-29T12:50:35;101712.46;;;24.60
69552;BMP280;63774;45.292;11.784;2023-05-29T12:53:10;101709.84;;;24.60
69552;BMP280;63774;45.292;11.784;2023-05-29T12:55:41;101708.16;;;24.60
69552;BMP280;63774;45.292;11.784;2023-05-29T12:58:09;101703.16;;;24.58
69552;BMP280;63774;45.292;11.784;2023-05-29T13:00:37;101704.59;;;24.59
69552;BMP280;63774;45.292;11.784;2023-05-29T13:03:07;101700.77;;;24.58
69552;BMP280;63774;45.292;11.784;2023-05-29T13:05:33;101702.51;;;24.61
69552;BMP280;63774;45.292;11.784;2023-05-29T13:07:59;101694.48;;;24.60
69552;BMP280;63774;45.292;11.784;2023-05-29T13:10:26;101691.52;;;24.61
69552;BMP280;63774;45.292;11.784;2023-05-29T13:12:54;101688.89;;;24.62
69552;BMP280;63774;45.292;11.784;2023-05-29T13:15:24;101682.98;;;24.60
69552;BMP280;63774;45.292;11.784;2023-05-29T13:17:51;101680.08;;;24.60
69552;BMP280;63774;45.292;11.784;2023-05-29T13:20:18;101679.41;;;24.61
69552;BMP280;63774;45.292;11.784;2023-05-29T13:22:46;101676.13;;;24.61
69552;BMP280;63774;45.292;11.784;2023-05-29T13:25:13;101673.31;;;24.61
69552;BMP280;63774;45.292;11.784;2023-05-29T13:27:42;101671.14;;;24.61
69552;BMP280;63774;45.292;11.784;2023-05-29T13:30:09;101668.57;;;24.61
69552;BMP280;63774;45.292;11.784;2023-05-29T13:32:35;101666.91;;;24.61
69552;BMP280;63774;45.292;11.784;2023-05-29T13:35:00;101662.81;;;24.63
69552;BMP280;63774;45.292;11.784;2023-05-29T13:37:26;101660.60;;;24.63
69552;BMP280;63774;45.292;11.784;2023-05-29T13:39:54;101657.69;;;24.63
69552;BMP280;63774;45.292;11.784;2023-05-29T13:42:21;101656.31;;;24.63
69552;BMP280;63774;45.292;11.784;2023-05-29T13:44:47;101652.86;;;24.62
69552;BMP280;63774;45.292;11.784;2023-05-29T13:47:14;101653.36;;;24.64
69552;BMP280;63774;45.292;11.784;2023-05-29T13:49:40;101651.36;;;24.62
69552;BMP280;63774;45.292;11.784;2023-05-29T13:52:06;101651.02;;;24.64
69552;BMP280;63774;45.292;11.784;2023-05-29T13:54:32;101647.84;;;24.65
69552;BMP280;63774;45.292;11.784;2023-05-29T13:57:18;101646.02;;;24.65
69552;BMP280;63774;45.292;11.784;2023-05-29T13:59:45;101643.64;;;24.65
69552;BMP280;63774;45.292;11.784;2023-05-29T14:02:11;101639.42;;;24.64
69552;BMP280;63774;45.292;11.784;2023-05-29T14:04:37;101639.09;;;24.66
69552;BMP280;63774;45.292;11.784;2023-05-29T14:07:04;101638.13;;;24.65
69552;BMP280;63774;45.292;11.784;2023-05-29T14:09:30;101638.80;;;24.67
69552;BMP280;63774;45.292;11.784;2023-05-29T14:11:58;101642.34;;;24.68
69552;BMP280;63774;45.292;11.784;2023-05-29T14:14:25;101645.89;;;24.69
69552;BMP280;63774;45.292;11.784;2023-05-29T14:16:51;101645.21;;;24.70